createdAt,value
2017-06-25T04:44:08.603Z,0
2017-06-25T04:45:16.691Z,4
2017-06-25T04:46:24.780Z,4
2017-06-25T04:47:32.868Z,4
2017-06-25T04:48:40.955Z,4
2017-06-25T04:49:49.044Z,4
2017-06-25T04:50:57.132Z,4
2017-06-25T04:52:05.219Z,4
2017-06-25T04:53:13.305Z,4
2017-06-25T04:54:21.393Z,0
2017-06-25T04:55:29.483Z,4
2017-06-25T04:56:37.579Z,4
2017-06-25T04:57:45.659Z,0
2017-06-25T04:58:53.746Z,0
2017-06-25T05:00:01.834Z,4
2017-06-25T05:01:09.923Z,4
2017-06-25T05:02:18.009Z,4
2017-06-25T05:03:26.096Z,0
2017-06-25T05:04:34.186Z,0
2017-06-25T05:05:42.272Z,0
2017-06-25T05:06:50.360Z,4
2017-06-25T05:07:58.448Z,4
2017-06-25T05:09:06.566Z,4
2017-06-25T05:10:14.629Z,4
2017-06-25T05:11:22.716Z,0
2017-06-25T05:12:30.808Z,0
2017-06-25T05:13:38.893Z,4
2017-06-25T05:14:46.979Z,0
2017-06-25T05:15:55.081Z,0
2017-06-25T05:17:03.174Z,0
2017-06-25T05:18:11.253Z,0
2017-06-25T05:19:19.340Z,4
2017-06-25T05:20:27.427Z,0
2017-06-25T05:21:35.516Z,4
2017-06-25T05:22:43.611Z,0
2017-06-25T05:23:51.720Z,0
2017-06-25T05:25:00.069Z,0
2017-06-25T05:26:08.244Z,0
2017-06-25T05:27:15.966Z,4
2017-06-25T05:28:24.054Z,0
2017-06-25T05:29:32.138Z,0
2017-06-25T05:30:40.229Z,0
2017-06-25T05:31:48.316Z,0
2017-06-25T05:32:56.403Z,0
2017-06-25T05:34:04.491Z,4
2017-06-25T05:35:12.843Z,4
2017-06-25T05:36:20.694Z,4
2017-06-25T05:37:28.760Z,0
2017-06-25T05:38:36.845Z,0
2017-06-25T05:39:44.929Z,0
2017-06-25T05:40:53.018Z,0
2017-06-25T05:42:01.106Z,0
2017-06-25T05:43:09.197Z,0
2017-06-25T05:44:17.282Z,0
2017-06-25T05:45:25.371Z,0
2017-06-25T05:46:33.461Z,0
2017-06-25T05:47:41.545Z,0
2017-06-25T05:48:49.661Z,0
2017-06-25T05:49:57.720Z,4
2017-06-25T05:51:05.809Z,4
2017-06-25T05:52:13.896Z,4
2017-06-25T05:53:21.984Z,4
2017-06-25T05:54:30.626Z,0
2017-06-25T05:55:38.164Z,4
2017-06-25T05:56:46.250Z,4
2017-06-25T05:57:54.337Z,4
2017-06-25T05:59:02.424Z,4
2017-06-25T06:00:10.519Z,8
2017-06-25T06:01:18.609Z,8
2017-06-25T06:02:26.696Z,8
2017-06-25T06:03:34.787Z,4
2017-06-25T06:04:42.874Z,8
2017-06-25T06:05:50.962Z,4
2017-06-25T06:06:59.049Z,8
2017-06-25T06:08:07.141Z,4
2017-06-25T06:09:15.226Z,8
2017-06-25T06:10:23.313Z,8
2017-06-25T06:11:31.401Z,4
2017-06-25T06:12:39.489Z,8
2017-06-25T06:13:47.579Z,8
2017-06-25T06:14:55.665Z,8
2017-06-25T06:16:03.753Z,8
2017-06-25T06:17:11.842Z,8
2017-06-25T06:18:19.928Z,8
2017-06-25T06:19:28.016Z,12
2017-06-25T06:20:36.105Z,8
2017-06-25T06:21:44.194Z,8
2017-06-25T06:22:52.283Z,8
2017-06-25T06:24:00.372Z,8
2017-06-25T06:25:08.458Z,8
2017-06-25T06:26:16.547Z,8
2017-06-25T06:27:24.633Z,8
2017-06-25T06:28:32.843Z,8
2017-06-25T06:29:40.811Z,8
2017-06-25T06:30:48.900Z,8
2017-06-25T06:31:57.192Z,12
2017-06-25T06:33:05.077Z,8
2017-06-25T06:34:13.163Z,12
2017-06-25T06:35:21.251Z,12
2017-06-25T06:36:29.340Z,12
2017-06-25T06:37:37.429Z,12
2017-06-25T06:38:45.516Z,8
2017-06-25T06:39:53.610Z,12
2017-06-25T06:41:01.701Z,12
2017-06-25T06:42:09.787Z,12
2017-06-25T06:43:17.876Z,12
2017-06-25T06:44:25.979Z,16
2017-06-25T06:45:34.048Z,12
2017-06-25T06:46:42.144Z,12
2017-06-25T06:47:50.232Z,12
2017-06-25T06:48:58.372Z,12
2017-06-25T06:50:06.410Z,16
2017-06-25T06:51:14.499Z,12
2017-06-25T06:52:22.588Z,16
2017-06-25T06:53:30.674Z,16
2017-06-25T06:54:38.764Z,16
2017-06-25T06:55:46.970Z,20
2017-06-25T06:56:54.939Z,20
2017-06-25T06:58:03.028Z,20
2017-06-25T06:59:11.116Z,20
2017-06-25T07:00:19.204Z,20
2017-06-25T07:01:27.292Z,20
2017-06-25T07:02:35.381Z,20
2017-06-25T07:03:43.491Z,20
2017-06-25T07:04:51.580Z,20
2017-06-25T07:05:59.648Z,20
2017-06-25T07:07:07.735Z,20
2017-06-25T07:08:15.823Z,20
2017-06-25T07:09:23.911Z,20
2017-06-25T07:10:32.000Z,16
2017-06-25T07:11:40.087Z,16
2017-06-25T07:12:48.240Z,16
2017-06-25T07:13:56.263Z,12
2017-06-25T07:15:04.352Z,12
2017-06-25T07:16:12.441Z,8
2017-06-25T07:17:20.528Z,12
2017-06-25T07:18:28.643Z,16
2017-06-25T07:19:36.710Z,12
2017-06-25T07:20:44.919Z,16
2017-06-25T07:21:52.886Z,16
2017-06-25T07:23:00.974Z,16
2017-06-25T07:24:09.068Z,20
2017-06-25T07:25:17.152Z,20
2017-06-25T07:26:25.241Z,20
2017-06-25T07:27:33.331Z,24
2017-06-25T07:28:41.418Z,20
2017-06-25T07:29:49.506Z,20
2017-06-25T07:30:57.593Z,24
2017-06-25T07:32:05.681Z,20
2017-06-25T07:33:13.771Z,20
2017-06-25T07:34:21.859Z,20
2017-06-25T07:35:29.946Z,20
2017-06-25T07:36:38.036Z,24
2017-06-25T07:37:46.124Z,20
2017-06-25T07:38:54.213Z,24
2017-06-25T07:40:02.298Z,24
2017-06-25T07:41:10.435Z,20
2017-06-25T07:42:18.474Z,20
2017-06-25T07:43:26.562Z,24
2017-06-25T07:44:34.650Z,28
2017-06-25T07:45:42.739Z,28
2017-06-25T07:46:50.854Z,28
2017-06-25T07:47:58.916Z,32
2017-06-25T07:49:07.003Z,28
2017-06-25T07:50:15.091Z,36
2017-06-25T07:51:23.179Z,32
2017-06-25T07:52:31.271Z,32
2017-06-25T07:53:39.359Z,28
2017-06-25T07:54:47.445Z,32
2017-06-25T07:55:55.542Z,20
2017-06-25T07:57:03.622Z,20
2017-06-25T07:58:11.710Z,24
2017-06-25T07:59:19.824Z,24
2017-06-25T08:00:27.898Z,32
2017-06-25T08:01:36.024Z,36
2017-06-25T08:02:44.061Z,32
2017-06-25T08:03:52.153Z,32
2017-06-25T08:05:00.240Z,32
2017-06-25T08:06:08.329Z,32
2017-06-25T08:07:16.417Z,32
2017-06-25T08:08:24.507Z,32
2017-06-25T08:09:32.595Z,36
2017-06-25T08:10:40.684Z,36
2017-06-25T08:11:48.773Z,40
2017-06-25T08:12:56.860Z,40
2017-06-25T08:14:04.950Z,36
2017-06-25T08:15:13.037Z,40
2017-06-25T08:16:21.129Z,36
2017-06-25T08:17:29.216Z,44
2017-06-25T08:18:37.368Z,44
2017-06-25T08:19:45.392Z,52
2017-06-25T08:20:53.485Z,52
2017-06-25T08:22:01.569Z,48
2017-06-25T08:23:09.691Z,44
2017-06-25T08:24:17.756Z,28
2017-06-25T08:25:25.844Z,28
2017-06-25T08:26:33.934Z,28
2017-06-25T08:27:42.021Z,32
2017-06-25T08:28:50.111Z,28
2017-06-25T08:29:58.198Z,28
2017-06-25T08:31:06.286Z,28
2017-06-25T08:32:14.377Z,28
2017-06-25T08:33:22.488Z,32
2017-06-25T08:34:30.556Z,40
2017-06-25T08:35:38.663Z,36
2017-06-25T08:36:46.731Z,36
2017-06-25T08:37:54.826Z,36
2017-06-25T08:39:02.908Z,32
2017-06-25T08:40:11.006Z,32
2017-06-25T08:41:19.096Z,32
2017-06-25T08:42:27.184Z,32
2017-06-25T08:43:35.272Z,36
2017-06-25T08:44:43.362Z,40
2017-06-25T08:45:51.450Z,36
2017-06-25T08:46:59.539Z,36
2017-06-25T08:48:07.628Z,28
2017-06-25T08:49:15.741Z,28
2017-06-25T08:50:23.806Z,28
2017-06-25T08:51:31.894Z,24
2017-06-25T08:52:40.040Z,28
2017-06-25T08:53:48.072Z,24
2017-06-25T08:54:56.162Z,28
2017-06-25T08:56:04.248Z,28
2017-06-25T08:57:12.338Z,24
2017-06-25T08:58:20.427Z,20
2017-06-25T08:59:28.516Z,20
2017-06-25T09:00:36.606Z,24
2017-06-25T09:01:44.694Z,24
2017-06-25T09:02:52.784Z,24
2017-06-25T09:04:00.889Z,24
2017-06-25T09:05:08.961Z,28
2017-06-25T09:06:17.049Z,20
2017-06-25T09:07:25.135Z,20
2017-06-25T09:08:33.225Z,16
2017-06-25T09:09:41.391Z,24
2017-06-25T09:10:49.405Z,28
2017-06-25T09:11:57.517Z,28
2017-06-25T09:13:05.585Z,28
2017-06-25T09:14:13.670Z,24
2017-06-25T09:15:21.761Z,24
2017-06-25T09:16:29.848Z,36
2017-06-25T09:17:37.934Z,28
2017-06-25T09:18:46.023Z,32
2017-06-25T09:19:54.115Z,32
2017-06-25T09:21:02.204Z,36
2017-06-25T09:22:10.292Z,28
2017-06-25T09:23:18.382Z,36
2017-06-25T09:24:26.469Z,36
2017-06-25T09:25:34.558Z,32
2017-06-25T09:26:42.648Z,36
2017-06-25T09:27:50.735Z,36
2017-06-25T09:28:58.825Z,32
2017-06-25T09:30:06.915Z,36
2017-06-25T09:31:15.007Z,16
2017-06-25T09:32:23.092Z,32
2017-06-25T09:33:31.182Z,20
2017-06-25T09:34:39.271Z,24
2017-06-25T09:35:47.361Z,20
2017-06-25T09:36:55.446Z,36
2017-06-25T09:38:03.547Z,40
2017-06-25T09:39:11.637Z,40
2017-06-25T09:40:19.726Z,20
2017-06-25T09:41:27.813Z,20
2017-06-25T09:42:35.902Z,36
2017-06-25T09:43:43.991Z,16
2017-06-25T09:44:52.080Z,24
2017-06-25T09:46:00.170Z,28
2017-06-25T09:47:08.258Z,20
2017-06-25T09:48:16.350Z,28
2017-06-25T09:49:24.438Z,44
2017-06-25T09:50:32.551Z,20
2017-06-25T09:51:40.616Z,24
2017-06-25T09:52:48.729Z,24
2017-06-25T09:53:56.794Z,24
2017-06-25T09:55:04.884Z,24
2017-06-25T09:56:12.972Z,16
2017-06-25T09:57:21.060Z,16
2017-06-25T09:58:29.152Z,16
2017-06-25T09:59:37.239Z,20
2017-06-25T10:00:45.328Z,16
2017-06-25T10:01:53.418Z,24
2017-06-25T10:03:01.507Z,28
2017-06-25T10:04:09.606Z,20
2017-06-25T10:05:17.686Z,24
2017-06-25T10:06:25.772Z,32
2017-06-25T10:07:33.862Z,28
2017-06-25T10:08:41.956Z,20
2017-06-25T10:09:50.042Z,20
2017-06-25T10:10:58.133Z,16
2017-06-25T10:12:06.227Z,12
2017-06-25T10:13:14.314Z,16
2017-06-25T10:14:22.404Z,20
2017-06-25T10:15:30.493Z,20
2017-06-25T10:16:38.582Z,20
2017-06-25T10:17:46.671Z,16
2017-06-25T10:18:54.761Z,20
2017-06-25T10:20:02.850Z,20
2017-06-25T10:21:10.938Z,20
2017-06-25T10:22:19.027Z,24
2017-06-25T10:23:27.115Z,20
2017-06-25T10:24:35.205Z,20
2017-06-25T10:25:43.294Z,20
2017-06-25T10:26:51.385Z,20
2017-06-25T10:27:59.497Z,20
2017-06-25T10:29:07.645Z,20
2017-06-25T10:30:15.651Z,32
2017-06-25T19:50:51.752Z,0
2017-06-25T19:51:59.841Z,0
2017-06-25T19:53:07.930Z,0
2017-06-25T19:54:16.074Z,0
2017-06-25T19:55:24.106Z,0
2017-06-25T19:56:32.196Z,0
2017-06-25T19:57:40.293Z,0
2017-06-25T19:58:48.373Z,0
2017-06-25T19:59:56.463Z,0
2017-06-25T20:01:04.554Z,0
2017-06-25T20:02:12.642Z,0
2017-06-25T20:03:20.730Z,0
2017-06-25T20:04:28.836Z,0
2017-06-25T20:05:36.909Z,0
2017-06-25T20:06:44.997Z,0
2017-06-25T20:07:53.097Z,0
2017-06-25T20:09:01.178Z,0
2017-06-25T20:10:09.267Z,0
2017-06-25T20:11:17.356Z,0
2017-06-25T20:12:25.445Z,0
2017-06-25T20:13:33.533Z,0
2017-06-25T20:14:41.622Z,0
2017-06-25T20:15:49.714Z,0
2017-06-25T20:16:57.805Z,0
2017-06-25T20:18:05.891Z,0
2017-06-25T20:19:13.980Z,0
2017-06-25T20:20:22.089Z,0
2017-06-25T20:21:30.158Z,0
2017-06-25T20:22:38.245Z,0
2017-06-25T20:23:46.335Z,0
2017-06-25T20:24:54.425Z,0
2017-06-25T20:26:02.540Z,0
2017-06-25T20:27:10.604Z,0
2017-06-25T20:28:18.941Z,0
2017-06-25T20:29:27.213Z,0
2017-06-25T20:30:34.948Z,0
2017-06-25T20:31:42.962Z,0
2017-06-25T20:32:51.047Z,0
2017-06-25T20:33:59.137Z,0
2017-06-25T20:35:07.475Z,0
2017-06-25T20:36:15.556Z,0
2017-06-25T20:37:23.527Z,0
2017-06-25T20:38:31.496Z,0
2017-06-25T20:39:39.607Z,0
2017-06-25T20:40:47.677Z,0
2017-06-25T20:41:55.767Z,0
2017-06-25T20:43:03.857Z,0
2017-06-25T20:44:11.947Z,0
2017-06-25T20:45:20.060Z,0
2017-06-25T20:46:28.125Z,0
2017-06-25T20:47:36.225Z,0
2017-06-25T20:48:44.303Z,0
2017-06-25T20:49:52.391Z,0
2017-06-25T20:51:00.479Z,0
2017-06-25T20:52:08.570Z,0
2017-06-25T20:53:16.727Z,0
2017-06-25T20:54:24.748Z,0
2017-06-25T20:55:32.843Z,0
2017-06-25T20:56:40.929Z,0
2017-06-25T20:57:49.015Z,0
2017-06-25T20:58:57.105Z,0
2017-06-25T21:00:05.194Z,0
2017-06-25T21:01:13.283Z,0
2017-06-25T21:02:21.370Z,0
2017-06-25T21:03:29.459Z,0
2017-06-25T21:04:37.550Z,0
2017-06-25T21:05:45.640Z,0
2017-06-25T21:06:53.725Z,0
2017-06-25T21:08:01.817Z,0
2017-06-25T21:09:09.905Z,0
2017-06-25T21:10:17.995Z,0
2017-06-25T21:11:26.082Z,0
2017-06-25T21:12:34.171Z,0
2017-06-25T21:13:42.263Z,0
2017-06-25T21:14:50.351Z,0
2017-06-25T21:15:58.443Z,0
2017-06-25T21:17:06.533Z,0
2017-06-25T21:18:14.632Z,0
2017-06-25T21:19:22.709Z,0
2017-06-25T21:20:30.797Z,0
2017-06-25T21:21:38.889Z,0
2017-06-25T21:22:46.975Z,0
2017-06-25T21:23:55.065Z,0
2017-06-25T21:25:03.154Z,0
2017-06-25T21:26:11.243Z,0
2017-06-25T21:27:19.333Z,0
2017-06-25T21:28:27.420Z,0
2017-06-25T21:29:35.509Z,0
2017-06-25T21:30:43.597Z,0
2017-06-25T21:31:51.686Z,0
2017-06-25T21:32:59.800Z,0
2017-06-25T21:34:07.867Z,0
2017-06-25T21:35:15.954Z,0
2017-06-25T21:36:24.057Z,0
2017-06-25T21:37:32.129Z,0
2017-06-25T21:38:40.221Z,0
2017-06-25T21:39:48.307Z,0
2017-06-25T21:40:56.394Z,0
2017-06-25T21:42:04.486Z,0
2017-06-25T21:43:12.583Z,0
2017-06-25T21:44:20.664Z,0
2017-06-25T21:45:28.753Z,0
2017-06-25T21:46:36.840Z,0
2017-06-25T21:47:44.932Z,0
2017-06-25T21:48:53.020Z,0
2017-06-25T21:50:01.347Z,0
2017-06-25T21:51:09.197Z,0
2017-06-25T21:52:17.284Z,0
2017-06-25T21:53:25.373Z,0
2017-06-25T21:54:33.462Z,0
2017-06-25T21:55:41.552Z,0
2017-06-25T21:56:49.643Z,0
2017-06-25T21:57:57.730Z,0
2017-06-25T21:59:05.857Z,0
2017-06-25T22:00:13.904Z,0
2017-06-25T22:01:22.007Z,0
2017-06-25T22:02:30.083Z,0
2017-06-25T22:03:38.170Z,0
2017-06-25T22:04:46.259Z,0
2017-06-25T22:05:54.374Z,0
2017-06-25T22:07:02.439Z,0
2017-06-25T22:08:10.527Z,0
2017-06-25T22:09:18.614Z,0
2017-06-25T22:10:26.702Z,0
2017-06-25T22:11:34.789Z,0
2017-06-25T22:12:42.879Z,0
2017-06-25T22:13:50.968Z,0
2017-06-25T22:14:59.067Z,0
2017-06-25T22:16:07.163Z,0
2017-06-25T22:17:15.255Z,0
2017-06-25T22:18:23.343Z,0
2017-06-25T22:19:31.431Z,0
2017-06-25T22:20:39.518Z,0
2017-06-25T22:21:47.612Z,0
2017-06-25T22:22:55.722Z,0
2017-06-25T22:24:03.784Z,0
2017-06-25T22:25:11.873Z,0
2017-06-25T22:26:19.961Z,0
2017-06-25T22:27:28.050Z,0
2017-06-25T22:28:36.139Z,0
2017-06-25T22:29:44.261Z,0
2017-06-25T22:30:52.314Z,0
2017-06-25T22:32:00.406Z,0
2017-06-25T22:33:08.493Z,0
2017-06-25T22:34:16.605Z,0
2017-06-25T22:35:24.671Z,0
2017-06-25T22:36:32.758Z,0
2017-06-25T22:37:40.846Z,0
2017-06-25T22:38:48.936Z,0
2017-06-25T22:39:57.025Z,0
2017-06-25T22:41:05.114Z,0
2017-06-25T22:42:13.201Z,0
2017-06-25T22:43:21.294Z,0
2017-06-25T22:44:29.379Z,0
2017-06-25T22:45:37.493Z,0
2017-06-25T22:46:45.556Z,0
2017-06-25T22:47:53.645Z,0
2017-06-25T22:49:01.732Z,0
2017-06-25T22:50:09.821Z,0
2017-06-25T22:51:17.912Z,0
2017-06-25T22:52:26.004Z,0
2017-06-25T22:53:34.087Z,0
2017-06-25T22:54:42.175Z,0
2017-06-25T22:55:50.265Z,0
2017-06-25T22:56:58.352Z,0
2017-06-25T22:58:06.456Z,0
2017-06-25T22:59:14.553Z,0
2017-06-25T23:00:22.620Z,0
2017-06-25T23:01:30.708Z,0
2017-06-25T23:02:38.795Z,0
2017-06-25T23:03:46.883Z,0
2017-06-25T23:04:54.970Z,0
2017-06-25T23:06:03.057Z,0
2017-06-25T23:07:11.146Z,0
2017-06-25T23:08:19.235Z,0
2017-06-25T23:09:27.324Z,0
2017-06-25T23:10:35.414Z,0
2017-06-25T23:11:43.560Z,0
2017-06-25T23:12:51.654Z,0
2017-06-25T23:13:59.679Z,0
2017-06-25T23:15:07.767Z,0
2017-06-25T23:16:15.858Z,0
2017-06-25T23:17:23.945Z,0
2017-06-25T23:18:32.032Z,0
2017-06-25T23:19:40.123Z,0
2017-06-25T23:20:48.211Z,0
2017-06-25T23:21:56.300Z,0
2017-06-25T23:23:04.391Z,0
2017-06-25T23:24:12.476Z,0
2017-06-25T23:25:20.565Z,0
2017-06-25T23:26:28.654Z,0
2017-06-25T23:27:36.743Z,0
2017-06-25T23:28:44.829Z,0
2017-06-25T23:29:52.943Z,0
2017-06-25T23:31:01.008Z,0
2017-06-25T23:32:09.097Z,0
2017-06-25T23:33:17.183Z,0
2017-06-25T23:34:25.277Z,0
2017-06-25T23:35:33.364Z,0
2017-06-25T23:36:41.455Z,0
2017-06-25T23:37:49.664Z,0
2017-06-25T23:38:57.632Z,0
2017-06-25T23:40:05.721Z,0
2017-06-25T23:41:13.812Z,0
2017-06-25T23:42:21.898Z,0
2017-06-25T23:43:29.985Z,0
2017-06-25T23:44:38.073Z,0
2017-06-25T23:45:46.162Z,0
2017-06-25T23:46:54.250Z,0
